createdAt,value
2017-08-25T00:00:59.927Z,5.60
2017-08-25T00:03:26.211Z,5.67
2017-08-25T00:05:52.501Z,6.47
2017-08-25T00:08:18.800Z,5.67
2017-08-25T00:10:45.081Z,5.70
2017-08-25T00:13:11.385Z,5.10
2017-08-25T00:15:37.691Z,4.70
2017-08-25T00:18:04.001Z,6.40
2017-08-25T00:20:30.304Z,5.60
2017-08-25T00:22:56.582Z,5.67
2017-08-25T00:25:22.900Z,6.13
2017-08-25T00:27:49.200Z,5.70
2017-08-25T00:30:15.516Z,5.60
2017-08-25T00:32:41.823Z,6.10
2017-08-25T00:35:08.090Z,5.33
2017-08-25T00:37:34.453Z,5.10
2017-08-25T00:40:00.725Z,4.67
2017-08-25T00:42:27.023Z,4.57
2017-08-25T00:44:53.312Z,5.50
2017-08-25T00:47:19.609Z,5.77
2017-08-25T00:49:45.978Z,5.63
2017-08-25T00:52:12.315Z,6.47
2017-08-25T00:54:38.804Z,6.30
2017-08-25T00:57:05.108Z,5.10
2017-08-25T00:59:31.384Z,5.80
2017-08-25T01:01:57.728Z,5.63
2017-08-25T01:04:24.093Z,5.07
2017-08-25T01:06:50.427Z,5.30
2017-08-25T01:09:16.736Z,5.23
2017-08-25T01:11:43.100Z,5.20
2017-08-25T01:14:09.339Z,5.30
2017-08-25T01:16:35.651Z,5.30
2017-08-25T01:19:01.964Z,5.33
2017-08-25T01:21:28.267Z,5.90
2017-08-25T01:23:54.555Z,5.40
2017-08-25T01:26:20.858Z,5.60
2017-08-25T01:28:47.187Z,6.00
2017-08-25T01:31:13.471Z,4.90
2017-08-25T01:33:39.771Z,5.37
2017-08-25T01:36:06.068Z,5.80
2017-08-25T01:38:32.363Z,5.83
2017-08-25T01:40:58.699Z,5.50
2017-08-25T01:43:24.960Z,6.30
2017-08-25T01:45:51.397Z,6.03
2017-08-25T01:48:17.744Z,5.70
2017-08-25T01:50:44.144Z,6.00
2017-08-25T01:53:10.411Z,6.30
2017-08-25T01:55:36.693Z,5.37
2017-08-25T01:58:02.988Z,6.00
2017-08-25T02:00:29.320Z,5.77
2017-08-25T02:02:55.620Z,5.93
2017-08-25T02:05:21.903Z,6.20
2017-08-25T02:07:48.199Z,5.77
2017-08-25T02:10:14.469Z,6.10
2017-08-25T02:12:40.781Z,7.00
2017-08-25T02:15:07.129Z,7.60
2017-08-25T02:17:33.429Z,6.87
2017-08-25T02:19:59.751Z,6.00
2017-08-25T02:22:26.019Z,6.20
2017-08-25T02:24:52.308Z,5.60
2017-08-25T02:27:18.586Z,6.80
2017-08-25T02:29:45.618Z,6.20
2017-08-25T02:32:11.924Z,8.53
2017-08-25T02:34:38.264Z,6.43
2017-08-25T02:37:04.561Z,6.37
2017-08-25T02:39:30.904Z,6.10
2017-08-25T02:41:57.373Z,6.27
2017-08-25T02:44:23.660Z,5.83
2017-08-25T02:46:49.947Z,6.17
2017-08-25T02:49:16.273Z,6.17
2017-08-25T02:51:42.560Z,5.50
2017-08-25T02:54:08.930Z,6.50
2017-08-25T02:56:35.185Z,5.87
2017-08-25T02:59:01.476Z,5.50
2017-08-25T03:01:27.795Z,6.00
2017-08-25T03:03:54.072Z,5.90
2017-08-25T03:06:20.408Z,5.50
2017-08-25T03:08:46.689Z,5.93
2017-08-25T03:11:13.016Z,5.73
2017-08-25T03:13:39.312Z,6.07
2017-08-25T03:16:05.588Z,7.07
2017-08-25T03:18:31.908Z,6.53
2017-08-25T03:20:58.316Z,6.70
2017-08-25T03:23:24.639Z,7.43
2017-08-25T03:25:51.012Z,6.80
2017-08-25T03:28:17.273Z,7.10
2017-08-25T03:30:43.584Z,7.50
2017-08-25T03:33:09.871Z,7.67
2017-08-25T03:35:36.242Z,8.23
2017-08-25T03:38:02.539Z,6.93
2017-08-25T03:40:28.848Z,6.90
2017-08-25T03:42:55.208Z,7.20
2017-08-25T03:45:21.517Z,6.60
2017-08-25T03:47:47.832Z,6.87
2017-08-25T03:50:14.140Z,7.50
2017-08-25T03:52:40.471Z,6.77
2017-08-25T03:55:06.831Z,6.50
2017-08-25T03:57:33.144Z,7.03
2017-08-25T03:59:59.451Z,6.60
2017-08-25T04:02:25.764Z,6.57
2017-08-25T04:04:52.092Z,6.90
2017-08-25T04:07:18.364Z,6.20
2017-08-25T04:09:44.668Z,7.00
2017-08-25T04:12:11.017Z,6.40
2017-08-25T04:14:37.324Z,6.37
2017-08-25T04:17:03.641Z,7.20
2017-08-25T04:19:29.932Z,6.60
2017-08-25T04:21:56.265Z,7.40
2017-08-25T04:24:22.566Z,7.23
2017-08-25T04:26:48.880Z,7.23
2017-08-25T04:29:15.188Z,7.50
2017-08-25T04:31:41.464Z,7.10
2017-08-25T04:34:07.772Z,7.90
2017-08-25T04:36:34.137Z,7.47
2017-08-25T04:39:00.463Z,8.30
2017-08-25T04:41:26.748Z,8.37
2017-08-25T04:43:53.034Z,7.20
2017-08-25T04:46:19.321Z,8.07
2017-08-25T04:48:45.672Z,9.53
2017-08-25T04:51:11.996Z,7.43
2017-08-25T04:53:38.284Z,8.77
2017-08-25T04:56:04.632Z,8.17
2017-08-25T04:58:30.903Z,7.80
2017-08-25T05:00:57.218Z,7.60
2017-08-25T05:03:23.512Z,7.67
2017-08-25T05:05:49.812Z,7.87
2017-08-25T05:08:16.095Z,9.60
2017-08-25T05:10:42.413Z,7.47
2017-08-25T05:13:08.867Z,7.40
2017-08-25T05:15:35.276Z,6.83
2017-08-25T05:18:01.569Z,7.60
2017-08-25T05:20:27.868Z,7.50
2017-08-25T05:22:54.173Z,7.40
2017-08-25T05:25:20.523Z,7.60
2017-08-25T05:27:46.833Z,7.03
2017-08-25T05:30:13.909Z,7.23
2017-08-25T05:32:40.231Z,7.70
2017-08-25T05:35:06.748Z,7.50
2017-08-25T05:37:33.077Z,7.20
2017-08-25T05:39:59.406Z,7.67
2017-08-25T05:42:25.703Z,8.50
2017-08-25T05:44:51.973Z,7.03
2017-08-25T05:47:18.309Z,7.60
2017-08-25T05:49:44.624Z,8.10
2017-08-25T05:52:10.946Z,7.97
2017-08-25T05:54:37.240Z,6.93
2017-08-25T05:57:03.534Z,7.70
2017-08-25T05:59:29.867Z,8.20
2017-08-25T06:01:56.280Z,7.33
2017-08-25T06:04:22.594Z,7.83
2017-08-25T06:06:48.908Z,7.47
2017-08-25T06:09:15.203Z,7.67
2017-08-25T06:11:41.512Z,7.03
2017-08-25T06:14:07.798Z,6.10
2017-08-25T06:16:34.108Z,6.57
2017-08-25T06:19:00.448Z,5.50
2017-08-25T06:21:26.732Z,5.43
2017-08-25T06:23:53.047Z,6.00
2017-08-25T06:26:19.363Z,6.33
2017-08-25T06:28:45.657Z,5.80
2017-08-25T06:31:12.002Z,5.13
2017-08-25T06:33:38.284Z,5.20
2017-08-25T06:36:04.572Z,6.30
2017-08-25T06:38:30.861Z,5.03
2017-08-25T06:40:57.187Z,5.10
2017-08-25T06:43:23.496Z,5.17
2017-08-25T06:45:49.817Z,4.70
2017-08-25T06:48:16.867Z,6.00
2017-08-25T06:50:43.162Z,5.47
2017-08-25T06:53:09.470Z,4.60
2017-08-25T06:55:35.735Z,4.70
2017-08-25T06:58:02.056Z,4.53
2017-08-25T07:00:28.511Z,5.00
2017-08-25T07:02:54.860Z,4.90
2017-08-25T07:05:21.144Z,4.20
2017-08-25T07:07:47.448Z,4.40
2017-08-25T07:10:13.821Z,5.00
2017-08-25T07:12:40.292Z,4.13
2017-08-25T07:15:06.588Z,3.70
2017-08-25T07:17:32.908Z,3.53
2017-08-25T07:19:59.253Z,4.13
2017-08-25T07:22:25.517Z,3.30
2017-08-25T07:24:51.828Z,3.90
2017-08-25T07:27:18.140Z,3.23
2017-08-25T07:29:44.528Z,3.60
2017-08-25T07:32:10.930Z,3.50
2017-08-25T07:34:37.515Z,2.93
2017-08-25T07:37:03.922Z,2.93
2017-08-25T07:39:30.215Z,5.10
2017-08-25T07:41:56.524Z,3.67
2017-08-25T07:44:22.817Z,2.90
2017-08-25T07:46:49.119Z,2.90
2017-08-25T07:49:15.428Z,2.80
2017-08-25T07:51:41.727Z,3.13
2017-08-25T07:54:08.031Z,3.67
2017-08-25T07:56:34.354Z,2.90
2017-08-25T07:59:00.864Z,2.93
2017-08-25T08:01:27.180Z,3.20
2017-08-25T08:03:53.484Z,3.40
2017-08-25T08:06:19.776Z,3.30
2017-08-25T08:08:46.062Z,2.90
2017-08-25T08:11:13.087Z,3.13
2017-08-25T08:13:39.396Z,2.97
2017-08-25T08:16:05.708Z,2.60
2017-08-25T08:18:32.069Z,2.80
2017-08-25T08:20:58.380Z,2.30
2017-08-25T08:23:24.703Z,2.87
2017-08-25T08:25:51.033Z,2.42
2017-08-25T08:28:17.339Z,2.22
2017-08-25T08:30:43.624Z,2.70
2017-08-25T08:33:09.948Z,2.08
2017-08-25T08:35:36.309Z,3.33
2017-08-25T08:38:02.658Z,2.05
2017-08-25T08:40:29.204Z,1.80
2017-08-25T08:42:55.515Z,1.90
2017-08-25T08:45:21.848Z,2.25
2017-08-25T08:47:48.142Z,1.50
2017-08-25T08:50:14.472Z,1.80
2017-08-25T08:52:40.763Z,1.90
2017-08-25T08:55:07.056Z,1.85
2017-08-25T08:57:33.395Z,1.67
2017-08-25T08:59:59.668Z,2.08
2017-08-25T09:02:26.014Z,1.58
2017-08-25T09:04:52.283Z,2.08
2017-08-25T09:07:18.571Z,1.58
2017-08-25T09:09:44.875Z,1.95
2017-08-25T09:12:11.232Z,1.85
2017-08-25T09:14:37.535Z,1.77
2017-08-25T09:17:03.812Z,2.22
2017-08-25T09:19:30.144Z,2.30
2017-08-25T09:21:56.509Z,2.15
2017-08-25T09:24:22.803Z,2.57
2017-08-25T09:26:49.139Z,2.63
2017-08-25T09:29:15.454Z,2.50
2017-08-25T09:31:41.744Z,2.20
2017-08-25T09:34:08.039Z,2.40
2017-08-25T09:36:35.084Z,2.63
2017-08-25T09:39:01.363Z,2.50
2017-08-25T09:41:27.684Z,3.90
2017-08-25T09:43:54.013Z,2.33
2017-08-25T09:46:20.303Z,3.43
2017-08-25T09:48:46.620Z,3.27
2017-08-25T09:51:12.951Z,2.80
2017-08-25T09:53:39.265Z,2.93
2017-08-25T09:56:05.537Z,2.50
2017-08-25T09:58:31.832Z,3.00
2017-08-25T10:00:58.128Z,3.43
2017-08-25T10:03:24.448Z,3.23
2017-08-25T10:05:50.723Z,2.80
2017-08-25T10:08:17.024Z,3.10
2017-08-25T10:10:43.340Z,3.13
2017-08-25T10:13:09.653Z,3.17
2017-08-25T10:15:35.955Z,3.20
2017-08-25T10:18:02.233Z,3.00
2017-08-25T10:20:29.465Z,3.33
2017-08-25T10:22:55.741Z,3.30
2017-08-25T10:25:22.048Z,3.30
2017-08-25T10:27:48.361Z,3.03
2017-08-25T10:30:14.671Z,2.33
2017-08-25T10:32:40.995Z,2.70
2017-08-25T10:35:19.401Z,2.27
2017-08-25T10:37:57.961Z,2.60
2017-08-25T10:40:36.408Z,2.50
2017-08-25T10:43:15.100Z,2.43
2017-08-25T10:45:41.433Z,2.03
2017-08-25T10:48:07.792Z,2.33
2017-08-25T10:50:34.079Z,2.10
2017-08-25T10:53:00.547Z,2.53
2017-08-25T10:55:26.883Z,2.30
2017-08-25T10:57:53.183Z,2.50
2017-08-25T11:00:19.499Z,2.63
2017-08-25T11:02:45.796Z,2.90
2017-08-25T11:05:12.122Z,3.07
2017-08-25T11:07:38.412Z,2.83
2017-08-25T11:10:04.712Z,2.80
2017-08-25T11:12:31.041Z,2.60
2017-08-25T11:14:57.360Z,4.17
2017-08-25T11:17:23.686Z,7.47
2017-08-25T11:19:49.980Z,7.03
2017-08-25T11:22:16.264Z,6.50
2017-08-25T11:24:42.791Z,5.13
2017-08-25T11:27:09.056Z,2.67
2017-08-25T11:29:35.480Z,3.07
2017-08-25T11:32:01.740Z,2.70
2017-08-25T11:34:28.047Z,2.47
2017-08-25T11:36:54.319Z,3.13
2017-08-25T11:39:20.641Z,5.10
2017-08-25T11:41:46.948Z,5.33
2017-08-25T11:44:13.268Z,2.83
2017-08-25T11:46:39.544Z,3.17
2017-08-25T11:49:05.832Z,2.70
2017-08-25T11:51:32.139Z,3.07
2017-08-25T11:53:58.444Z,3.83
2017-08-25T11:56:24.738Z,4.10
2017-08-25T11:58:51.080Z,2.93
2017-08-25T12:01:17.461Z,3.40
2017-08-25T12:03:43.775Z,4.90
2017-08-25T12:06:10.174Z,3.77
2017-08-25T12:08:36.506Z,4.17
2017-08-25T12:11:02.820Z,3.80
2017-08-25T12:13:29.108Z,4.57
2017-08-25T12:15:55.432Z,4.00
2017-08-25T12:18:21.663Z,3.00
2017-08-25T12:20:48.005Z,4.10
2017-08-25T12:23:14.300Z,4.23
2017-08-25T12:25:40.695Z,2.93
2017-08-25T12:28:07.040Z,4.00
2017-08-25T12:30:33.428Z,3.33
2017-08-25T12:32:59.744Z,2.90
2017-08-25T12:35:26.080Z,3.00
2017-08-25T12:37:52.400Z,2.87
2017-08-25T12:40:18.848Z,3.00
2017-08-25T12:42:45.172Z,3.90
2017-08-25T12:45:11.513Z,3.30
2017-08-25T12:47:37.807Z,3.60
2017-08-25T12:50:05.128Z,4.07
2017-08-25T12:52:31.428Z,4.00
2017-08-25T12:54:57.743Z,3.90
2017-08-25T12:57:24.038Z,3.07
2017-08-25T12:59:50.361Z,3.30
2017-08-25T13:02:16.712Z,3.40
2017-08-25T13:04:43.030Z,3.20
2017-08-25T13:07:09.332Z,3.10
2017-08-25T13:09:35.792Z,2.73
2017-08-25T13:12:02.119Z,2.80
2017-08-25T13:14:28.519Z,2.90
2017-08-25T13:16:54.999Z,3.40
2017-08-25T13:19:22.063Z,3.17
2017-08-25T13:21:48.451Z,2.83
2017-08-25T13:24:14.792Z,3.50
2017-08-25T13:26:41.100Z,3.63
2017-08-25T13:29:07.412Z,2.50
2017-08-25T13:31:33.723Z,3.80
2017-08-25T13:33:59.988Z,3.17
2017-08-25T13:36:26.396Z,3.40
2017-08-25T13:38:52.715Z,3.17
2017-08-25T13:41:19.039Z,3.67
2017-08-25T13:43:45.373Z,2.93
2017-08-25T13:46:11.687Z,3.70
2017-08-25T13:48:38.151Z,3.17
2017-08-25T13:51:04.508Z,4.03
2017-08-25T13:53:30.824Z,3.90
2017-08-25T13:55:57.191Z,3.00
2017-08-25T13:58:23.461Z,3.20
2017-08-25T14:00:49.791Z,3.40
2017-08-25T14:03:16.132Z,3.70
2017-08-25T14:05:42.476Z,2.93
2017-08-25T14:08:08.795Z,3.10
2017-08-25T14:10:35.102Z,3.63
2017-08-25T14:13:01.400Z,3.30
2017-08-25T14:15:27.814Z,3.47
2017-08-25T14:17:54.099Z,3.40
2017-08-25T14:20:20.437Z,4.07
2017-08-25T14:22:46.724Z,3.90
2017-08-25T14:25:13.068Z,4.20
2017-08-25T14:27:39.372Z,4.17
2017-08-25T14:30:05.699Z,3.50
2017-08-25T14:32:32.048Z,3.27
2017-08-25T14:34:58.347Z,3.50
2017-08-25T14:37:24.832Z,3.20
2017-08-25T14:39:51.124Z,3.27
2017-08-25T14:42:17.432Z,3.20
2017-08-25T14:44:43.765Z,3.40
2017-08-25T14:47:10.087Z,3.23
2017-08-25T14:49:36.403Z,3.80
2017-08-25T14:52:02.700Z,3.53
2017-08-25T14:54:29.023Z,3.40
2017-08-25T14:56:55.351Z,3.60
2017-08-25T14:59:21.676Z,3.93
2017-08-25T15:01:47.964Z,3.40
2017-08-25T15:04:14.320Z,3.30
2017-08-25T15:06:47.676Z,4.10
2017-08-25T15:09:13.991Z,4.00
2017-08-25T15:11:40.508Z,3.60
2017-08-25T15:14:06.901Z,3.80
2017-08-25T15:16:33.194Z,3.57
2017-08-25T15:18:59.549Z,3.57
2017-08-25T15:21:25.855Z,4.37
2017-08-25T15:23:52.251Z,3.60
2017-08-25T15:26:18.561Z,3.90
2017-08-25T15:28:44.863Z,3.60
2017-08-25T15:31:11.161Z,4.27
2017-08-25T15:33:37.528Z,4.37
2017-08-25T15:36:03.821Z,3.70
2017-08-25T15:38:30.147Z,4.00
2017-08-25T15:40:56.529Z,3.53
2017-08-25T15:43:22.864Z,3.97
2017-08-25T15:45:49.191Z,3.37
2017-08-25T15:48:15.497Z,3.80
2017-08-25T15:50:41.809Z,3.87
2017-08-25T15:53:08.211Z,3.43
2017-08-25T15:55:34.595Z,3.73
2017-08-25T15:58:00.921Z,3.70
2017-08-25T16:00:27.271Z,3.27
2017-08-25T16:02:53.588Z,3.17
2017-08-25T16:05:19.942Z,4.10
2017-08-25T16:07:46.228Z,3.43
2017-08-25T16:10:12.618Z,3.37
2017-08-25T16:12:38.946Z,5.63
2017-08-25T16:15:05.324Z,4.03
2017-08-25T16:17:31.836Z,3.30
2017-08-25T16:19:58.120Z,3.60
2017-08-25T16:22:24.641Z,3.30
2017-08-25T16:24:51.036Z,3.90
2017-08-25T16:27:17.344Z,3.50
2017-08-25T16:29:43.640Z,3.50
2017-08-25T16:32:09.939Z,4.90
2017-08-25T16:34:36.413Z,5.93
2017-08-25T16:37:02.723Z,5.30
2017-08-25T16:39:29.141Z,5.80
2017-08-25T16:41:55.459Z,5.37
2017-08-25T16:44:21.775Z,5.10
2017-08-25T16:46:48.100Z,6.63
2017-08-25T16:49:14.423Z,5.33
2017-08-25T16:51:41.485Z,5.30
2017-08-25T16:54:07.809Z,5.80
2017-08-25T16:56:34.148Z,7.13
2017-08-25T16:59:00.469Z,6.00
2017-08-25T17:01:26.774Z,6.60
2017-08-25T17:03:53.127Z,7.10
2017-08-25T17:06:20.153Z,7.50
2017-08-25T17:08:46.451Z,6.17
2017-08-25T17:11:12.968Z,5.23
2017-08-25T17:13:39.324Z,4.50
2017-08-25T17:16:05.624Z,5.07
2017-08-25T17:18:31.971Z,4.53
2017-08-25T17:20:58.266Z,5.40
2017-08-25T17:23:24.601Z,5.47
2017-08-25T17:25:50.930Z,6.43
2017-08-25T17:28:17.320Z,5.63
2017-08-25T17:30:43.604Z,4.97
2017-08-25T17:33:10.262Z,5.70
2017-08-25T17:35:36.665Z,5.50
2017-08-25T17:38:02.951Z,6.47
2017-08-25T17:40:29.292Z,6.90
2017-08-25T17:42:55.596Z,7.33
2017-08-25T17:45:21.889Z,8.27
2017-08-25T17:47:48.225Z,7.40
2017-08-25T17:50:14.588Z,7.30
2017-08-25T17:52:41.072Z,8.00
2017-08-25T17:55:07.383Z,8.50
2017-08-25T17:57:33.732Z,8.20
2017-08-25T18:00:00.008Z,7.10
2017-08-25T18:02:26.324Z,7.40
2017-08-25T18:04:52.822Z,8.40
2017-08-25T18:07:19.856Z,8.00
2017-08-25T18:09:46.173Z,8.73
2017-08-25T18:12:12.456Z,9.70
2017-08-25T18:14:38.764Z,9.23
2017-08-25T18:17:05.063Z,7.63
2017-08-25T18:19:31.364Z,9.97
2017-08-25T18:21:57.716Z,8.63
2017-08-25T18:24:24.064Z,8.67
2017-08-25T18:26:50.372Z,8.73
2017-08-25T18:29:16.672Z,10.57
2017-08-25T18:31:42.971Z,11.20
2017-08-25T18:34:09.317Z,11.00
2017-08-25T18:36:35.612Z,9.67
2017-08-25T18:39:01.933Z,9.67
2017-08-25T18:41:28.336Z,11.13
2017-08-25T18:43:54.692Z,10.10
2017-08-25T18:46:21.053Z,10.97
2017-08-25T18:48:47.331Z,9.80
2017-08-25T18:51:13.661Z,9.47
2017-08-25T18:53:39.979Z,11.40
2017-08-25T18:56:06.263Z,11.50
2017-08-25T18:58:32.681Z,12.00
2017-08-25T19:00:59.020Z,11.80
2017-08-25T19:03:25.539Z,12.43
2017-08-25T19:05:51.972Z,12.10
2017-08-25T19:08:18.305Z,12.70
2017-08-25T19:10:44.632Z,15.50
2017-08-25T19:13:10.969Z,13.10
2017-08-25T19:15:37.292Z,9.77
2017-08-25T19:18:03.597Z,9.80
2017-08-25T19:20:29.903Z,10.00
2017-08-25T19:22:56.445Z,10.13
2017-08-25T19:25:23.000Z,9.10
2017-08-25T19:27:49.369Z,9.87
2017-08-25T19:30:15.682Z,9.80
2017-08-25T19:32:42.036Z,11.30
2017-08-25T19:35:08.333Z,11.63
2017-08-25T19:37:34.644Z,9.87
2017-08-25T19:40:01.031Z,10.60
2017-08-25T19:42:27.600Z,9.80
2017-08-25T19:44:53.943Z,9.67
2017-08-25T19:47:20.257Z,10.10
2017-08-25T19:49:46.637Z,9.80
2017-08-25T19:52:12.953Z,11.20
2017-08-25T19:54:39.310Z,10.90
2017-08-25T19:57:05.660Z,11.60
2017-08-25T19:59:32.028Z,11.07
2017-08-25T20:01:58.376Z,9.70
2017-08-25T20:04:24.739Z,10.33
2017-08-25T20:06:51.088Z,11.07
2017-08-25T20:09:17.445Z,10.73
2017-08-25T20:11:43.739Z,10.97
2017-08-25T20:14:10.080Z,9.93
2017-08-25T20:16:36.368Z,13.33
2017-08-25T20:19:02.836Z,15.47
2017-08-25T20:21:29.156Z,14.57
2017-08-25T20:23:55.436Z,14.13
2017-08-25T20:26:21.748Z,14.30
2017-08-25T20:28:48.116Z,15.37
2017-08-25T20:31:14.497Z,14.33
2017-08-25T20:33:40.955Z,15.60
2017-08-25T20:36:07.272Z,16.70
2017-08-25T20:38:33.588Z,17.70
2017-08-25T20:40:59.931Z,16.90
2017-08-25T20:43:26.248Z,18.90
2017-08-25T20:45:52.612Z,20.17
2017-08-25T20:48:18.901Z,18.93
2017-08-25T20:50:45.218Z,18.80
2017-08-25T20:53:11.580Z,19.73
2017-08-25T20:55:37.929Z,19.60
2017-08-25T20:58:04.256Z,19.07
2017-08-25T21:00:30.573Z,19.43
2017-08-25T21:02:56.953Z,18.70
2017-08-25T21:05:23.305Z,18.30
2017-08-25T21:07:49.597Z,20.50
2017-08-25T21:10:15.928Z,18.70
2017-08-25T21:12:42.243Z,20.80
2017-08-25T21:15:08.572Z,18.70
2017-08-25T21:17:34.932Z,19.60
2017-08-25T21:20:01.236Z,16.30
2017-08-25T21:22:27.551Z,16.43
2017-08-25T21:24:53.899Z,17.30
2017-08-25T21:27:20.233Z,17.93
2017-08-25T21:29:46.599Z,18.63
2017-08-25T21:32:12.985Z,17.93
2017-08-25T21:34:39.292Z,16.40
2017-08-25T21:37:05.603Z,16.37
2017-08-25T21:39:31.898Z,15.90
2017-08-25T21:41:58.272Z,14.60
2017-08-25T21:44:24.600Z,14.80
2017-08-25T21:46:50.882Z,14.40
2017-08-25T21:49:17.215Z,11.03
2017-08-25T21:51:43.519Z,10.50
2017-08-25T21:54:09.811Z,10.00
2017-08-25T21:56:36.215Z,9.87
2017-08-25T21:59:02.496Z,9.80
2017-08-25T22:01:28.951Z,9.67
2017-08-25T22:03:55.248Z,11.07
2017-08-25T22:06:22.321Z,9.70
2017-08-25T22:08:48.619Z,9.73
2017-08-25T22:11:14.902Z,10.67
2017-08-25T22:13:41.208Z,8.93
2017-08-25T22:16:07.496Z,9.33
2017-08-25T22:18:33.836Z,8.90
2017-08-25T22:21:00.888Z,9.30
2017-08-25T22:23:27.219Z,9.90
2017-08-25T22:25:53.515Z,11.23
2017-08-25T22:28:19.812Z,10.80
2017-08-25T22:30:46.088Z,12.60
2017-08-25T22:33:12.412Z,12.70
2017-08-25T22:35:38.754Z,13.60
2017-08-25T22:38:05.148Z,13.70
2017-08-25T22:40:31.488Z,14.77
2017-08-25T22:42:57.800Z,13.67
2017-08-25T22:45:24.102Z,14.40
2017-08-25T22:47:50.412Z,14.20
2017-08-25T22:50:16.748Z,11.33
2017-08-25T22:52:43.096Z,13.20
2017-08-25T22:55:09.424Z,15.03
2017-08-25T22:57:35.744Z,18.20
2017-08-25T23:00:02.036Z,18.83
2017-08-25T23:02:28.357Z,18.40
2017-08-25T23:04:54.692Z,20.33
2017-08-25T23:07:20.982Z,21.03
2017-08-25T23:09:47.268Z,24.73
2017-08-25T23:12:13.558Z,23.70
2017-08-25T23:14:39.831Z,22.80
2017-08-25T23:17:06.132Z,23.03
2017-08-25T23:19:32.412Z,23.90
2017-08-25T23:21:58.874Z,23.90
2017-08-25T23:24:25.263Z,20.43
2017-08-25T23:26:52.493Z,22.63
2017-08-25T23:29:18.862Z,19.97
2017-08-25T23:31:45.255Z,19.47
2017-08-25T23:34:11.747Z,22.07
2017-08-25T23:36:38.037Z,21.20
2017-08-25T23:39:04.323Z,17.73
2017-08-25T23:41:30.644Z,15.43
2017-08-25T23:43:56.964Z,14.07
2017-08-25T23:46:23.366Z,13.90
2017-08-25T23:48:49.651Z,13.63
2017-08-25T23:51:16.020Z,12.63
2017-08-25T23:53:42.660Z,11.83
2017-08-25T23:56:08.941Z,12.10
2017-08-25T23:58:35.245Z,9.87
